Waf_motion — 4RBK — position and weather

sailwx.info

Track history (hours):
 
Tides and Currents Weather Stations Pressure Air Temp Water Temp Dewpoint Dewpoint Depression Visibility Wind Speed Wind Dir Waves Ship Positions

Waf_motion

Last reported at 2016-Aug-23 21:29 UTC. Time now 2016-Aug-24 08:34 UTC.
Position N 42°00' W 009°12'.

Length 140 m; draft 7.7 m.

Type: Ship (hazmat cat A). MMSI: 417222324.

Date/timePositionNaut miles runAvg speedWind from/ knotsBaromVisibWave heightAir tempDewpointWater temp
2016-Aug-23 21:29N 42°00' W 009°12'1211.9
2016-Aug-23 20:30N 41°50' W 009°04'1311.2
2016-Aug-23 19:19N 41°40' W 008°53'3 3.4
2016-Aug-23 18:33N 41°41' W 008°50'117 2.9
2016-Aug-22 02:08N 39°52' W 009°43'813.0
2016-Aug-22 01:33N 39°44' W 009°45'1312.7
2016-Aug-22 00:33N 39°32' W 009°49'1211.8
2016-Aug-21 23:33N 39°20' W 009°50'1211.7
2016-Aug-21 22:33N 39°08' W 009°50'1211.9
2016-Aug-21 21:31N 38°56' W 009°51'1111.8
2016-Aug-21 20:33N 38°45' W 009°52'1211.9
2016-Aug-21 19:33N 38°33' W 009°50'1212.1
2016-Aug-21 18:33N 38°21' W 009°50'1212.1
2016-Aug-21 17:33N 38°08' W 009°50'1212.1
2016-Aug-21 16:33N 37°56' W 009°50'1211.7
2016-Aug-21 15:33N 37°45' W 009°50'1211.7
2016-Aug-21 14:33N 37°33' W 009°50'1211.8
2016-Aug-21 13:33N 37°21' W 009°50'1212.0
2016-Aug-21 12:33N 37°09' W 009°50'1212.1
2016-Aug-21 11:32N 36°57' W 009°50'1312.0
2016-Aug-21 10:28N 36°44' W 009°50'2311.8
2016-Aug-21 08:29N 36°21' W 009°50'2211.4
2016-Aug-21 06:33N 35°59' W 009°50'1211.5
2016-Aug-21 05:33N 35°48' W 009°54'12011.6
2016-Aug-20 19:15N 33°51' W 010°27'811.7
2016-Aug-20 18:33N 33°43' W 010°29'17612.3
2016-Aug-20 04:11N 30°56' W 011°37'812.2
2016-Aug-20 03:31N 30°49' W 011°42'2612.0
2016-Aug-20 01:23N 30°27' W 011°55'1212.2
2016-Aug-20 00:23N 30°16' W 012°02'6112.3
2016-Aug-19 19:25N 29°22' W 012°35'15112.3
2016-Aug-19 07:06N 27°18' W 014°13'  
Track history (hours):
 
Tides and Currents Weather Stations Pressure Air Temp Water Temp Dewpoint Dewpoint Depression Visibility Wind Speed Wind Dir Waves Ship Positions

Waf_motion

Last reported at 2016-Aug-23 21:29 UTC. Time now 2016-Aug-24 08:34 UTC.
Position N 42°00' W 009°12'.

Length 140 m; draft 7.7 m.

Type: Ship (hazmat cat A). MMSI: 417222324.

Date/timePositionNaut miles runAvg speedWind from/ knotsBaromVisibWave heightAir tempDewpointWater temp
2016-Aug-23 21:29N 42°00' W 009°12'1211.9
2016-Aug-23 20:30N 41°50' W 009°04'1311.2
2016-Aug-23 19:19N 41°40' W 008°53'3 3.4
2016-Aug-23 18:33N 41°41' W 008°50'117 2.9
2016-Aug-22 02:08N 39°52' W 009°43'813.0
2016-Aug-22 01:33N 39°44' W 009°45'1312.7
2016-Aug-22 00:33N 39°32' W 009°49'1211.8
2016-Aug-21 23:33N 39°20' W 009°50'1211.7
2016-Aug-21 22:33N 39°08' W 009°50'1211.9
2016-Aug-21 21:31N 38°56' W 009°51'1111.8
2016-Aug-21 20:33N 38°45' W 009°52'1211.9
2016-Aug-21 19:33N 38°33' W 009°50'1212.1
2016-Aug-21 18:33N 38°21' W 009°50'1212.1
2016-Aug-21 17:33N 38°08' W 009°50'1212.1
2016-Aug-21 16:33N 37°56' W 009°50'1211.7
2016-Aug-21 15:33N 37°45' W 009°50'1211.7
2016-Aug-21 14:33N 37°33' W 009°50'1211.8
2016-Aug-21 13:33N 37°21' W 009°50'1212.0
2016-Aug-21 12:33N 37°09' W 009°50'1212.1
2016-Aug-21 11:32N 36°57' W 009°50'1312.0
2016-Aug-21 10:28N 36°44' W 009°50'2311.8
2016-Aug-21 08:29N 36°21' W 009°50'2211.4
2016-Aug-21 06:33N 35°59' W 009°50'1211.5
2016-Aug-21 05:33N 35°48' W 009°54'12011.6
2016-Aug-20 19:15N 33°51' W 010°27'811.7
2016-Aug-20 18:33N 33°43' W 010°29'17612.3
2016-Aug-20 04:11N 30°56' W 011°37'812.2
2016-Aug-20 03:31N 30°49' W 011°42'2612.0
2016-Aug-20 01:23N 30°27' W 011°55'1212.2
2016-Aug-20 00:23N 30°16' W 012°02'6112.3
2016-Aug-19 19:25N 29°22' W 012°35'15112.3
2016-Aug-19 07:06N 27°18' W 014°13'  

Dump ship's entire track history